createdAt,value
2023-04-02T00:01:27.277Z,17.89
2023-04-02T00:06:40.534Z,17.94
2023-04-02T00:11:46.059Z,17.87
2023-04-02T00:16:48.593Z,17.91
2023-04-02T00:21:52.637Z,17.88
2023-04-02T00:26:56.308Z,17.53
2023-04-02T00:32:00.490Z,17.26
2023-04-02T00:37:03.379Z,17.48
2023-04-02T00:42:06.776Z,17.48
2023-04-02T00:47:19.195Z,17.42
2023-04-02T00:52:25.608Z,17.42
2023-04-02T00:57:28.544Z,17.37
2023-04-02T01:02:38.720Z,17.46
2023-04-02T01:08:31.582Z,17.51
2023-04-02T01:14:02.807Z,17.28
2023-04-02T01:19:14.086Z,17.34
2023-04-02T01:24:16.384Z,17.25
2023-04-02T01:29:35.586Z,17.39
2023-04-02T01:34:39.200Z,17.17
2023-04-02T01:39:55.357Z,17.22
2023-04-02T01:45:05.201Z,17.09
2023-04-02T01:50:13.360Z,16.98
2023-04-02T01:55:21.751Z,17.11
2023-04-02T02:00:25.016Z,16.96
2023-04-02T02:05:28.023Z,16.85
2023-04-02T02:10:36.821Z,16.84
2023-04-02T02:15:39.511Z,16.92
2023-04-02T02:20:42.551Z,16.81
2023-04-02T02:25:47.293Z,16.61
2023-04-02T02:30:57.963Z,16.27
2023-04-02T02:36:02.428Z,15.19
2023-04-02T02:41:18.360Z,14.80
2023-04-02T02:46:24.110Z,15.04
2023-04-02T02:52:15.480Z,15.06
2023-04-02T02:57:29.122Z,15.00
2023-04-02T03:02:35.616Z,15.17
2023-04-02T03:07:38.692Z,15.41
2023-04-02T03:13:23.692Z,15.45
2023-04-02T03:18:44.021Z,15.33
2023-04-02T03:23:57.973Z,15.31
2023-04-02T03:29:15.816Z,15.53
2023-04-02T03:34:27.182Z,15.52
2023-04-02T03:39:44.140Z,15.58
2023-04-02T03:44:52.931Z,15.53
2023-04-02T03:50:01.711Z,15.41
2023-04-02T03:55:30.877Z,15.51
2023-04-02T04:00:58.260Z,15.68
2023-04-02T04:06:10.915Z,15.61
2023-04-02T04:11:19.006Z,15.49
2023-04-02T04:16:30.376Z,15.52
2023-04-02T04:21:38.613Z,15.23
2023-04-02T04:26:49.850Z,15.60
2023-04-02T04:31:55.964Z,15.59
2023-04-02T04:37:02.498Z,15.62
2023-04-02T04:42:07.736Z,15.53
2023-04-02T04:47:17.874Z,15.77
2023-04-02T04:52:27.233Z,15.84
2023-04-02T04:57:38.727Z,15.96
2023-04-02T05:03:06.432Z,16.01
2023-04-02T05:08:31.248Z,15.96
2023-04-02T05:13:58.978Z,16.05
2023-04-02T05:19:11.011Z,16.15
2023-04-02T05:24:28.215Z,16.25
2023-04-02T05:29:36.623Z,16.24
2023-04-02T05:34:41.991Z,16.22
2023-04-02T05:39:46.547Z,16.39
2023-04-02T05:45:44.096Z,16.25
2023-04-02T05:50:52.266Z,16.24
2023-04-02T05:56:12.990Z,16.29
2023-04-02T06:01:33.980Z,16.48
2023-04-02T06:06:42.921Z,16.55
2023-04-02T06:11:50.565Z,16.54
2023-04-02T06:16:52.827Z,16.40
2023-04-02T06:22:01.106Z,16.60
2023-04-02T06:27:08.801Z,16.53
2023-04-02T06:32:13.382Z,16.47
2023-04-02T06:37:28.355Z,16.31
2023-04-02T06:42:40.344Z,15.96
2023-04-02T06:47:47.468Z,16.55
2023-04-02T06:52:53.881Z,16.50
2023-04-02T06:57:56.429Z,16.46
2023-04-02T07:03:02.599Z,16.39
2023-04-02T07:08:04.937Z,16.09
2023-04-02T07:13:07.300Z,16.20
2023-04-02T07:18:26.816Z,16.16
2023-04-02T07:23:29.055Z,16.17
2023-04-02T07:28:31.417Z,16.25
2023-04-02T07:33:33.500Z,16.37
2023-04-02T07:38:35.753Z,16.55
2023-04-02T07:43:38.776Z,16.74
2023-04-02T07:48:41.118Z,16.81
2023-04-02T07:53:43.335Z,16.86
2023-04-02T07:58:46.851Z,16.88
2023-04-02T08:03:50.811Z,17.04
2023-04-02T08:08:54.570Z,16.95
2023-04-02T08:13:56.722Z,16.87
2023-04-02T08:18:59.185Z,16.75
2023-04-02T08:24:01.344Z,16.87
2023-04-02T08:29:04.584Z,17.12
2023-04-02T08:34:07.252Z,17.35
2023-04-02T08:39:13.781Z,17.35
2023-04-02T08:44:47.924Z,17.21
2023-04-02T08:49:58.761Z,16.77
2023-04-02T08:55:03.592Z,16.60
2023-04-02T09:00:37.413Z,16.92
2023-04-02T09:05:43.708Z,17.21
2023-04-02T09:11:09.681Z,17.29
2023-04-02T09:16:14.995Z,17.51
2023-04-02T09:21:36.802Z,17.45
2023-04-02T09:26:38.988Z,17.47
2023-04-02T09:31:46.861Z,18.33
2023-04-02T09:36:49.012Z,18.11
2023-04-02T09:42:02.872Z,18.23
2023-04-02T09:47:25.389Z,18.25
2023-04-02T09:52:28.885Z,18.30
2023-04-02T09:57:31.582Z,18.34
2023-04-02T10:02:33.904Z,18.97
2023-04-02T10:07:42.542Z,19.07
2023-04-02T10:12:48.405Z,19.22
2023-04-02T10:18:16.483Z,19.60
2023-04-02T10:23:20.145Z,19.59
2023-04-02T10:28:39.697Z,19.36
2023-04-02T10:33:47.445Z,19.51
2023-04-02T10:39:08.834Z,19.74
2023-04-02T10:44:48.105Z,19.50
2023-04-02T10:50:24.799Z,19.72
2023-04-02T10:55:32.638Z,20.39
2023-04-02T11:00:40.979Z,20.74
2023-04-02T11:05:45.563Z,20.93
2023-04-02T11:11:00.025Z,20.77
2023-04-02T11:16:02.574Z,20.98
2023-04-02T11:21:55.088Z,20.91
2023-04-02T11:27:16.369Z,21.00
2023-04-02T11:32:21.536Z,21.35
2023-04-02T11:37:44.524Z,21.74
2023-04-02T11:42:51.342Z,21.99
2023-04-02T11:48:04.116Z,22.15
2023-04-02T11:53:12.086Z,22.33
2023-04-02T11:58:44.979Z,22.84
2023-04-02T12:04:11.773Z,23.04
2023-04-02T12:09:24.289Z,22.98
2023-04-02T12:14:44.015Z,22.68
2023-04-02T12:19:55.084Z,23.21
2023-04-02T12:25:04.871Z,23.52
2023-04-02T12:30:18.141Z,23.39
2023-04-02T12:35:36.846Z,23.28
2023-04-02T12:40:39.340Z,23.47
2023-04-02T12:45:41.530Z,23.95
2023-04-02T12:50:43.829Z,24.34
2023-04-02T12:55:49.073Z,24.14
2023-04-02T13:00:51.407Z,23.73
2023-04-02T13:05:55.804Z,23.88
2023-04-02T13:11:06.402Z,24.55
2023-04-02T13:16:18.019Z,24.75
2023-04-02T13:21:20.217Z,24.05
2023-04-02T13:26:28.828Z,23.74
2023-04-02T13:31:32.946Z,24.34
2023-04-02T13:36:35.428Z,24.44
2023-04-02T13:41:45.627Z,24.78
2023-04-02T13:46:47.978Z,25.22
2023-04-02T13:52:03.412Z,25.31
2023-04-02T13:57:06.338Z,25.33
2023-04-02T14:02:26.828Z,25.71
2023-04-02T14:07:47.342Z,26.22
2023-04-02T14:12:57.999Z,26.39
2023-04-02T14:18:29.386Z,26.05
2023-04-02T14:23:45.929Z,26.17
2023-04-02T14:29:01.971Z,26.39
2023-04-02T14:34:25.402Z,26.75
2023-04-02T14:39:47.162Z,27.12
2023-04-02T14:45:11.426Z,27.33
2023-04-02T14:50:20.008Z,27.85
2023-04-02T14:55:44.349Z,29.16
2023-04-02T15:00:58.193Z,31.29
2023-04-02T15:06:11.072Z,32.06
2023-04-02T15:11:13.370Z,32.01
2023-04-02T15:16:23.146Z,32.94
2023-04-02T15:22:01.100Z,33.41
2023-04-02T15:27:25.362Z,33.63
2023-04-02T15:32:38.058Z,32.30
2023-04-02T15:37:48.984Z,29.91
2023-04-02T15:43:06.491Z,30.12
2023-04-02T15:48:59.478Z,29.79
2023-04-02T15:54:07.211Z,28.71
2023-04-02T15:59:27.540Z,27.77
2023-04-02T16:04:48.327Z,27.01
2023-04-02T16:10:10.211Z,26.13
2023-04-02T16:15:24.030Z,25.32
2023-04-02T16:20:37.380Z,24.62
2023-04-02T16:26:06.959Z,24.26
2023-04-02T16:31:14.612Z,23.69
2023-04-02T16:36:26.029Z,23.45
2023-04-02T16:41:34.002Z,23.11
2023-04-02T16:46:54.706Z,22.54
2023-04-02T16:52:23.042Z,22.05
2023-04-02T16:57:30.726Z,21.89
2023-04-02T17:02:51.283Z,21.75
2023-04-02T17:08:28.337Z,21.61
2023-04-02T17:13:47.362Z,21.39
2023-04-02T17:18:52.707Z,21.06
2023-04-02T17:23:58.363Z,20.97
2023-04-02T17:29:06.485Z,20.76
2023-04-02T17:34:17.343Z,20.59
2023-04-02T17:39:35.990Z,20.40
2023-04-02T17:44:59.321Z,20.49
2023-04-02T17:50:29.634Z,20.57
2023-04-02T17:55:41.104Z,20.55
2023-04-02T18:01:03.350Z,20.42
2023-04-02T18:06:15.833Z,20.40
2023-04-02T18:11:39.169Z,20.40
2023-04-02T18:17:08.863Z,20.29
2023-04-02T18:22:27.947Z,20.06
2023-04-02T18:27:56.132Z,19.89
2023-04-02T18:33:15.081Z,19.72
2023-04-02T18:38:19.981Z,19.73
2023-04-02T18:43:27.690Z,19.68
2023-04-02T18:48:55.104Z,19.57
2023-04-02T18:54:20.686Z,19.55
2023-04-02T18:59:48.297Z,19.56
2023-04-02T19:05:27.650Z,19.44
2023-04-02T19:10:34.528Z,19.33
2023-04-02T19:16:12.928Z,19.18
2023-04-02T19:21:26.986Z,19.12
2023-04-02T19:26:51.607Z,19.04
2023-04-02T19:32:10.595Z,18.91
2023-04-02T19:37:38.776Z,18.99
2023-04-02T19:42:48.804Z,18.85
2023-04-02T19:47:51.023Z,18.66
2023-04-02T19:52:53.475Z,18.57
2023-04-02T19:58:08.482Z,18.59
2023-04-02T20:03:18.130Z,18.58
2023-04-02T20:08:20.900Z,18.67
2023-04-02T20:13:23.123Z,18.54
2023-04-02T20:18:27.158Z,18.64
2023-04-02T20:23:29.340Z,18.61
2023-04-02T20:28:32.162Z,18.46
2023-04-02T20:33:34.681Z,18.42
2023-04-02T20:38:37.841Z,18.32
2023-04-02T20:43:41.326Z,18.19
2023-04-02T20:48:43.906Z,18.21
2023-04-02T20:53:46.890Z,18.02
2023-04-02T20:58:49.392Z,18.02
2023-04-02T21:03:56.812Z,17.97
2023-04-02T21:08:59.322Z,18.05
2023-04-02T21:14:01.934Z,17.94
2023-04-02T21:19:07.545Z,17.99
2023-04-02T21:24:10.065Z,17.91
2023-04-02T21:29:12.695Z,17.81
2023-04-02T21:34:17.161Z,17.77
2023-04-02T21:39:22.013Z,17.93
2023-04-02T21:44:25.032Z,17.76
2023-04-02T21:49:28.196Z,17.75
2023-04-02T21:54:30.729Z,17.75
2023-04-02T21:59:32.848Z,17.71
2023-04-02T22:04:34.999Z,17.69
2023-04-02T22:09:37.099Z,17.48
2023-04-02T22:14:39.201Z,17.52
2023-04-02T22:19:41.356Z,17.62
2023-04-02T22:24:43.525Z,17.55
2023-04-02T22:29:45.679Z,17.44
2023-04-02T22:34:47.870Z,17.24
2023-04-02T22:39:49.979Z,17.31
2023-04-02T22:44:52.058Z,17.16
2023-04-02T22:49:54.189Z,17.17
2023-04-02T22:54:56.417Z,16.97
2023-04-02T22:59:58.606Z,16.94
2023-04-02T23:05:00.965Z,16.96
2023-04-02T23:10:04.606Z,17.10
2023-04-02T23:15:08.665Z,17.15
2023-04-02T23:20:12.624Z,17.02
2023-04-02T23:25:14.887Z,16.92
2023-04-02T23:30:17.124Z,16.89
2023-04-02T23:35:19.294Z,16.79
2023-04-02T23:40:21.518Z,16.63
2023-04-02T23:45:23.724Z,16.76
2023-04-02T23:50:26.330Z,15.52
2023-04-02T23:55:28.455Z,15.67
